Hazard Outlook ... Ridge of high pressure will allow for hot and humid conditions to persist through the weekend, with a cold front bringing relief from the heat early next week. Showers and thunderstorms will be possible each day.

Nearby METAR Reports

 

KGSP - Greer/Spartansbg, South Carolina, USA
Distance from station: E 4mi, 6km
Updated: Sat, 20-Jul-2019 12:53pm EDT
Few Clouds
Few Clouds
 Wind from S
Wind: S 8 mph , 13 km/h
Temperature: 84°F , 29°C
Heat Index: 90°F , 32°C
Dew Point: 73°F , 23°C
Humidity: 70%
Barometer: 30.09 inHg , 1019 hPa
Clouds: Few Clouds
Visibility: 10 miles , 16 km
Cloud details: Few Clouds 2000 ft
2019/07/20 16:53 KGSP 201653Z 19007KT 10SM FEW020 29/23 A3009 RMK AO2 SLP175 T02890228
KGMU - Greenville, South Carolina, USA
Distance from station: SW 5mi, 8km
Updated: Sat, 20-Jul-2019 1:34pm EDT
Partly cloudy
Partly cloudy
 Wind from varies
Wind: varies 6 mph , 9 km/h
Temperature: 88°F , 31°C
Heat Index: 96°F , 36°C
Dew Point: 73°F , 23°C
Humidity: 62%
Barometer: 30.08 inHg , 1018.6 hPa
Clouds: Partly cloudy
Visibility: 10 miles , 16 km
Cloud details: Partly cloudy 2900 ft
2019/07/20 17:34 KGMU 201734Z VRB05KT 10SM SCT029 31/23 A3008 RMK AO2 T03110228
 
KGYH - Greenville, South Carolina, USA
Distance from station: SSW 11mi, 18km
Updated: Sat, 20-Jul-2019 12:47pm EDT
Partly cloudy
Partly cloudy
 Wind from WSW
Wind: WSW 7 mph , 11 km/h
Temperature: 84°F , 29°C
Heat Index: 90°F , 32°C
Dew Point: 73°F , 23°C
Humidity: 70%
Barometer: 30.08 inHg , 1018.6 hPa
Clouds: Partly cloudy
Visibility: 10 miles , 16 km
Cloud details: Partly cloudy 2500 ft
2019/07/20 16:47 KGYH 201647Z 24006KT 10SM SCT025 29/23 A3008
KSPA - Spartanburg, South Carolina, USA
Distance from station: E 20mi, 32km
Updated: Sat, 20-Jul-2019 1:55pm EDT
Partly cloudy
Partly cloudy
 Wind from SW
Wind: SW 7 mph , 11 km/h
Temperature: 84°F , 29°C
Heat Index: 89°F , 32°C
Dew Point: 72°F , 22°C
Humidity: 66%
Barometer: 30.05 inHg , 1017.6 hPa
Clouds: Partly cloudy
Visibility: 10 miles , 16 km
Cloud details: Partly cloudy 2600 ft
2019/07/20 17:55 KSPA 201755Z AUTO 23006KT 10SM SCT026 29/22 A3005 RMK AO2 LTG DSNT N
 
KLQK - Pickens, South Carolina, USA
Distance from station: WSW 24mi, 39km
Updated: Sat, 20-Jul-2019 1:55pm EDT
Mostly cloudy
Mostly cloudy
 Wind from S
Wind: S 6 mph , 9 km/h
Temperature: 86°F , 30°C
Heat Index: 95°F , 35°C
Dew Point: 75°F , 24°C
Humidity: 70%
Barometer: 30.07 inHg , 1018.3 hPa
Clouds: Mostly cloudy
Visibility: 10 miles , 16 km
Cloud details: Mostly cloudy 2600 ft
Mostly cloudy 3400 ft
2019/07/20 17:55 KLQK 201755Z AUTO 18005KT 10SM BKN026 BKN034 30/24 A3007 RMK AO2 LTG DSNT N T02970242 10302 20230
KLUX - Laurens, South Carolina, USA
Distance from station: SE 33mi, 54km
Updated: Sat, 20-Jul-2019 1:35pm EDT
Mostly cloudy
Mostly cloudy
 Wind from S
Wind: S 8 mph , 13 km/h
Temperature: 84°F , 29°C
Heat Index: 90°F , 32°C
Dew Point: 73°F , 23°C
Humidity: 70%
Barometer: 30.07 inHg , 1018.3 hPa
Clouds: Mostly cloudy
Visibility: 7 miles , 11 km
Cloud details: Mostly cloudy 2400 ft
Mostly cloudy 3000 ft
2019/07/20 17:35 KLUX 201735Z AUTO 19007KT 7SM BKN024 BKN030 29/23 A3007 RMK AO2
 
KAND - Anderson, South Carolina, USA
Distance from station: SW 37mi, 59km
Updated: Sat, 20-Jul-2019 1:42pm EDT
Overcast
Overcast
 Wind from S
Wind: S 10 mph , 17 km/h
Temperature: 84°F , 29°C
Heat Index: 89°F , 32°C
Dew Point: 72°F , 22°C
Humidity: 66%
Barometer: 30.07 inHg , 1018.3 hPa
Clouds: Overcast
Visibility: 10 miles , 16 km
Cloud details: Few Clouds 2000 ft
Overcast 3000 ft
2019/07/20 17:42 KAND 201742Z AUTO 19009KT 10SM FEW020 OVC030 29/22 A3007 RMK AO2 T02890222
KCEU - Clemson, South Carolina, USA
Distance from station: WSW 37mi, 60km
Updated: Sat, 20-Jul-2019 12:54pm EDT
Overcast
Overcast
 Wind from varies
Wind: varies 6 mph , 9 km/h
Temperature: 81°F , 27°C
Heat Index: 86°F , 30°C
Dew Point: 73°F , 23°C
Humidity: 79%
Barometer: 30.09 inHg , 1019 hPa
Clouds: Overcast
Visibility: 10 miles , 16 km
Cloud details: Mostly cloudy 2200 ft
Overcast 2800 ft
2019/07/20 16:54 KCEU 201654Z AUTO VRB05KT 10SM BKN022 OVC028 27/23 A3009 RMK AO2 SLP179 T02670228
 
KAVL - Asheville, North Carolina, USA
Distance from station: NNW 40mi, 64km
Updated: Sat, 20-Jul-2019 12:54pm EDT
Few Clouds
Few Clouds
 Wind from S
Wind: S 8 mph , 13 km/h
Temperature: 88°F , 31°C
Heat Index: 90°F , 32°C
Dew Point: 64°F , 18°C
Humidity: 46%
Barometer: 30.12 inHg , 1020 hPa
Clouds: Few Clouds
Visibility: 10 miles , 16 km
Cloud details: Few Clouds 4600 ft
2019/07/20 16:54 KAVL 201654Z 17007KT 10SM FEW046 31/18 A3012 RMK AO2 LTG DSNT SW SLP169 T03110183
KFQD - Rutherfordton, North Carolina, USA
Distance from station: NNE 41mi, 66km
Updated: Sat, 20-Jul-2019 1:35pm EDT
Clear
Clear
 Wind from S
Wind: S 9 mph , 15 km/h
Temperature: 86°F , 30°C
Heat Index: 92°F , 33°C
Dew Point: 72°F , 22°C
Humidity: 62%
Barometer: 30.07 inHg , 1018.3 hPa
Clouds: Clear
Visibility: 10 miles , 16 km
2019/07/20 17:35 KFQD 201735Z AUTO 19008KT 10SM CLR 30/22 A3007 RMK AO2 LTG DSNT NW THRU NE
 
KGRD - Greenwood, South Carolina, USA
Distance from station: S 45mi, 73km
Updated: Sat, 20-Jul-2019 1:38pm EDT
Mostly cloudy
Mostly cloudy
 Wind from SW
Wind: SW 9 mph , 15 km/h
Temperature: 84°F , 29°C
Heat Index: 89°F , 32°C
Dew Point: 72°F , 22°C
Humidity: 66%
Barometer: 30.09 inHg , 1019 hPa
Clouds: Mostly cloudy
Visibility: 10 miles , 16 km
Cloud details: Mostly cloudy 2000 ft
2019/07/20 17:38 KGRD 201738Z AUTO 23008KT 10SM BKN020 29/22 A3009 RMK AO2 T02890222
KEHO - Shelby Muni, North Carolina, USA
Distance from station: ENE 46mi, 74km
Updated: Sat, 20-Jul-2019 1:35pm EDT
Clear
Clear
 Wind from SSE
Wind: SSE 10 mph , 17 km/h
Temperature: 86°F , 30°C
Heat Index: 93°F , 34°C
Dew Point: 73°F , 23°C
Humidity: 66%
Barometer: 30.06 inHg , 1017.9 hPa
Clouds: Clear
Visibility: 10 miles , 16 km
2019/07/20 17:35 KEHO 201735Z AUTO 16009KT 10SM CLR 30/23 A3006 RMK AO2 T02960227